Ship Status Report: callsign BAREU51

sailwx.info

Track history (hours):
 
Tides and Currents Weather Stations Pressure Air Temp Water Temp Dewpoint Dewpoint Depression Visibility Wind Speed Wind Dir Waves Ship Positions

Callsign BAREU51 (name unknown)

Last reported at 2015-Jul-28 09:00 UTC. Time now 2015-Jul-28 10:23 UTC.
Position N 37°48' E 010°30'.

Barometer 1012.7 mb
Air temperature 25.6 ° C

Date/timePositionNaut miles runAvg speedWind from/ knotsBaromVisibWave heightAir tempDewpointWater temp
2015-Jul-28 09:00N 37°48' E 010°30'2424.5 1012.7 25.6
2015-Jul-28 08:00N 38°12' E 010°24'2424.0 1012.5 26.0
2015-Jul-28 07:00N 38°36' E 010°24'2424.5 1011.6 25.9
2015-Jul-28 06:00N 39°00' E 010°18'2424.0 1011.0 26.9
2015-Jul-28 05:00N 39°24' E 010°18'2424.0 1010.0 26.1
2015-Jul-28 04:00N 39°48' E 010°18'1918.6 1010.0 27.3
2015-Jul-28 03:00N 40°06' E 010°12'2424.0 1010.1 27.1
2015-Jul-28 02:00N 40°30' E 010°12'2424.4 1009.8 27.2
2015-Jul-28 01:00N 40°54' E 010°06'2424.4 1008.9 25.8
2015-Jul-28 00:00N 41°18' E 010°00'2424.4 1008.3 24.0
2015-Jul-27 23:00N 41°42' E 009°54'2424.4 1005.4 25.1
2015-Jul-27 22:00N 42°06' E 009°48'1918.5 1008.1 27.5
2015-Jul-27 21:00N 42°24' E 009°42'2424.4 1008.5 27.4
2015-Jul-27 20:00N 42°48' E 009°36'2424.4 1007.9 28.2
2015-Jul-27 19:00N 43°12' E 009°30'2424.4 1006.1 24.5
2015-Jul-27 18:00N 43°36' E 009°24'2020.0 1003.5 25.0
2015-Jul-27 17:00N 43°54' E 009°12'2020.0 1004.0 25.3
2015-Jul-27 16:00N 44°12' E 009°00'12 1.7 1004.7 27.7
2015-Jul-27 09:00N 44°24' E 009°00'2019.9 1007.7 28.2
2015-Jul-27 08:00N 44°06' E 009°12'2727.3 1007.2 26.0
2015-Jul-27 07:00N 43°42' E 009°30'3030.0 1007.0 24.6
2015-Jul-27 06:00N 43°12' E 009°30'2625.6 1008.3 26.7
2015-Jul-27 05:00N 42°48' E 009°42'3030.3 1008.9 25.4
2015-Jul-27 04:00N 42°18' E 009°48'2424.4 1009.3 25.9
2015-Jul-27 03:00N 41°54' E 009°54'3030.3 1009.2 25.4
2015-Jul-27 02:00N 41°24' E 010°00'2424.4 1005.9 22.9
2015-Jul-27 01:00N 41°00' E 010°06'3030.3 1008.9 24.1
2015-Jul-27 00:00N 40°30' E 010°12'2424.0 1010.0 25.1
2015-Jul-26 23:00N 40°06' E 010°12'3030.4 1010.2 26.4
2015-Jul-26 22:00N 39°36' E 010°18'2424.0 1010.3 28.2
2015-Jul-26 21:00N 39°12' E 010°18'3030.0 1010.9 27.9
2015-Jul-26 20:00N 38°42' E 010°18'2424.5 1011.0 27.8
2015-Jul-26 19:00N 38°18' E 010°24'3030.4 1010.3 26.3
2015-Jul-26 18:00N 37°48' E 010°30'3030.0 1011.4 26.3
2015-Jul-26 17:00N 37°18' E 010°30'2424.5 1011.5 26.8
2015-Jul-26 16:00N 36°54' E 010°24'6 0.8 1012.3 27.2
2015-Jul-26 08:00N 36°48' E 010°24'1918.6 1015.1 28.0
2015-Jul-26 07:00N 37°06' E 010°30'2424.0 1013.8 25.4
2015-Jul-26 06:00N 37°30' E 010°30'2424.0 1013.1 25.6
2015-Jul-26 05:00N 37°54' E 010°30'2424.5 1012.5 25.5
2015-Jul-26 04:00N 38°18' E 010°24'2424.0 1011.8 26.1
2015-Jul-26 03:00N 38°42' E 010°24'1918.6 1011.0 26.8
2015-Jul-26 02:00N 39°00' E 010°18'2424.0 1011.8 28.1
2015-Jul-26 01:00N 39°24' E 010°18'2424.4 1011.6 28.3
2015-Jul-26 00:00N 39°48' E 010°12'2424.0 1012.3 28.5
2015-Jul-25 23:00N 40°12' E 010°12'2424.0 1012.3 28.9
2015-Jul-25 22:00N 40°36' E 010°12'2625.7 1011.9 28.2
2015-Jul-25 21:00N 41°00' E 010°00'2424.0 1011.2 26.7
2015-Jul-25 20:00N 41°24' E 010°00'2424.4 1009.4 25.7
2015-Jul-25 19:00N 41°48' E 009°54'2424.4 1009.3 27.3
2015-Jul-25 18:00N 42°12' E 009°48'2424.4 1009.2 28.6
2015-Jul-25 17:00N 42°36' E 009°42'1918.5 1008.9 28.6
2015-Jul-25 16:00N 42°54' E 009°36'2424.4 1009.2 30.0
2015-Jul-25 15:00N 43°18' E 009°30'2020.0 1007.7 27.6
2015-Jul-25 14:00N 43°36' E 009°18'2625.5 1008.5 27.6
2015-Jul-25 13:00N 44°00' E 009°06'1918.5 1008.4 27.8
2015-Jul-25 12:00N 44°18' E 009°00'0 0.0 1009.0 24.7
2015-Jul-24 18:00N 44°18' E 009°00'2625.5 1008.3 27.6
2015-Jul-24 17:00N 43°54' E 009°12'42917.2 1007.8 28.4
2015-Jul-23 16:00N 36°48' E 010°18'1515.4 1011.2 30.3
2015-Jul-23 15:00N 37°00' E 010°30'2424.0 1011.4 26.8
2015-Jul-23 14:00N 37°24' E 010°30'2625.8 1011.2 26.6
2015-Jul-23 13:00N 37°48' E 010°18'2424.5 1012.2 27.4
2015-Jul-23 12:00N 38°12' E 010°12'2020.3 1012.2 27.9
2015-Jul-23 11:00N 38°30' E 010°00'2424.0 1012.8 29.1
2015-Jul-23 10:00N 38°54' E 010°00'2424.0 1012.7 29.5
2015-Jul-23 09:00N 39°18' E 010°00'2424.0 1012.9 29.4
2015-Jul-23 08:00N 39°42' E 010°00'2424.0 1012.3 28.4
2015-Jul-23 07:00N 40°06' E 010°00'3030.0 1012.3 27.7
2015-Jul-23 06:00N 40°36' E 010°00'2424.0 1011.8 26.5
2015-Jul-23 05:00N 41°00' E 010°00'2424.4 1011.7 25.9
2015-Jul-23 04:00N 41°24' E 009°54'3030.0 1010.8 26.7
2015-Jul-23 03:00N 41°54' E 009°54'2424.4 1011.6 27.8
2015-Jul-23 02:00N 42°18' E 009°48'2424.4 1011.8 27.7
2015-Jul-23 01:00N 42°42' E 009°42'2424.4 1012.1 27.3
2015-Jul-23 00:00N 43°06' E 009°36'2625.5 1012.2 27.3
2015-Jul-22 23:00N 43°30' E 009°24'2625.5 1012.2 26.6
2015-Jul-22 22:00N 43°54' E 009°12'2625.5 1012.1 26.9
2015-Jul-22 21:00N 44°18' E 009°00'7 1.1 1012.7 27.6
2015-Jul-22 14:00N 44°24' E 008°54'1312.7 1013.5 29.7
2015-Jul-22 13:00N 44°12' E 009°00'2020.0 1013.4 29.6
2015-Jul-22 12:00N 43°54' E 009°12'2625.5 1014.1 29.2
2015-Jul-22 11:00N 43°30' E 009°24'2625.5 1014.4 29.4
2015-Jul-22 10:00N 43°06' E 009°36'1918.5 1014.4 28.8
2015-Jul-22 09:00N 42°48' E 009°42'2424.4 1014.6 29.3
2015-Jul-22 08:00N 42°24' E 009°48'2424.0 1014.6 28.6
2015-Jul-22 07:00N 42°00' E 009°48'4824.1 1014.6 28.6
2015-Jul-22 05:00N 41°12' E 009°54'3030.3 1013.8 27.2
2015-Jul-22 04:00N 40°42' E 010°00'2424.4 1013.8 27.2
2015-Jul-22 03:00N 40°18' E 009°54'3030.0 1013.8 27.8
2015-Jul-22 02:00N 39°48' E 009°54'2424.4 1013.7 27.9
2015-Jul-22 01:00N 39°24' E 009°48'3030.4 1014.0 27.6
2015-Jul-22 00:00N 38°54' E 009°54'2625.8 1014.5 27.2
2015-Jul-21 23:00N 38°30' E 010°06'2424.5 1014.7 26.9
2015-Jul-21 22:00N 38°06' E 010°12'3131.5 1015.0 26.3
2015-Jul-21 21:00N 37°36' E 010°24'2424.5 1014.9 26.0
2015-Jul-21 20:00N 37°12' E 010°30'2424.5 1014.6 25.9
2015-Jul-21 19:00N 36°48' E 010°24'0 0.0 1014.1 26.3
2015-Jul-21 11:00N 36°48' E 010°24'2424.5 1015.5 28.9
2015-Jul-21 10:00N 37°12' E 010°30'1818.0 1015.3 26.8
2015-Jul-21 09:00N 37°30' E 010°30'2625.8 1015.0 26.4
2015-Jul-21 08:00N 37°54' E 010°18'2424.5 1014.6 26.5
2015-Jul-21 07:00N 38°18' E 010°12'2020.3 1014.4 26.3
2015-Jul-21 06:00N 38°36' E 010°00'2424.5 1014.4 26.5
2015-Jul-21 05:00N 39°00' E 009°54'2424.4 1014.1 27.0
2015-Jul-21 04:00N 39°24' E 009°48'2424.4 1014.0 26.6
2015-Jul-21 03:00N 39°48' E 009°54'2424.0 1013.7 27.3
2015-Jul-21 02:00N 40°12' E 009°54'2424.4 1013.8 27.2
2015-Jul-21 01:00N 40°36' E 010°00'4221.1 1014.1 27.0
2015-Jul-20 23:00N 41°18' E 009°54'2424.0 1013.1 26.2
2015-Jul-20 22:00N 41°42' E 009°54'2424.4 1013.9 27.7
2015-Jul-20 21:00N 42°06' E 009°48'2424.4 1014.0 27.8
2015-Jul-20 20:00N 42°30' E 009°42'2424.4 1013.9 28.1
2015-Jul-20 19:00N 42°54' E 009°36'2424.4 1013.1 28.6
2015-Jul-20 18:00N 43°18' E 009°30'2625.5 1012.4 27.1
2015-Jul-20 17:00N 43°42' E 009°18'3332.7 1011.9 28.1
2015-Jul-20 16:00N 44°12' E 009°00'12 1.7 1012.3 28.8
2015-Jul-20 09:00N 44°24' E 009°00'1918.5 1014.3 29.7
2015-Jul-20 08:00N 44°06' E 009°06'2625.5 1013.4 28.0
2015-Jul-20 07:00N 43°42' E 009°18'2625.5 1013.3 27.7
2015-Jul-20 06:00N 43°18' E 009°30'1918.5 1012.9 27.2
2015-Jul-20 05:00N 43°00' E 009°36'2424.4 1012.5 27.4
2015-Jul-20 04:00N 42°36' E 009°42'3030.3 1011.6 26.9
2015-Jul-20 03:00N 42°06' E 009°48'2424.4 1011.8 26.6
2015-Jul-20 02:00N 41°42' E 009°54'2424.0 1012.0 26.9
2015-Jul-20 01:00N 41°18' E 009°54'2424.4 1012.3 27.2
2015-Jul-20 00:00N 40°54' E 010°00'3030.0 1012.9 27.0
2015-Jul-19 23:00N 40°24' E 010°00'2424.4 1013.0 27.3
2015-Jul-19 22:00N 40°00' E 009°54'2424.4 1013.5 27.5
2015-Jul-19 21:00N 39°36' E 009°48'2424.0 1013.9 27.7
2015-Jul-19 20:00N 39°12' E 009°48'2625.7 1013.8 26.7
2015-Jul-19 19:00N 38°48' E 010°00'2424.5 1013.3 26.5
2015-Jul-19 18:00N 38°24' E 010°06'3131.4 1013.3 26.7
2015-Jul-19 17:00N 37°54' E 010°18'2424.5 1013.6 27.6
2015-Jul-19 16:00N 37°30' E 010°24'2424.5 1013.7 28.0
2015-Jul-19 15:00N 37°06' E 010°30'1918.6 1012.7 27.6
2015-Jul-19 14:00N 36°48' E 010°24'6 0.9 1012.4 27.6
2015-Jul-19 07:00N 36°54' E 010°24'1918.6 1015.3 25.7
2015-Jul-19 06:00N 37°12' E 010°30'2424.5 1015.1 25.8
2015-Jul-19 05:00N 37°36' E 010°24'2424.5 1014.8 25.2
2015-Jul-19 04:00N 38°00' E 010°18'2020.3 1014.4 25.4
2015-Jul-19 03:00N 38°18' E 010°06'2424.5 1014.4 25.8
2015-Jul-19 02:00N 38°42' E 010°00'2625.8 1014.4 26.4
2015-Jul-19 01:00N 39°06' E 009°48'1818.0 1015.5 27.1
2015-Jul-19 00:00N 39°24' E 009°48'2424.4 1015.5 27.3
2015-Jul-18 23:00N 39°48' E 009°54'2424.0 1015.0 27.9
2015-Jul-18 22:00N 40°12' E 009°54'2424.4 1014.9 27.2
2015-Jul-18 21:00N 40°36' E 010°00'2424.0 1014.8 27.3
2015-Jul-18 20:00N 41°00' E 010°00'2424.4 1015.3 27.9
2015-Jul-18 19:00N 41°24' E 009°54'3030.3 1015.3 27.2
2015-Jul-18 18:00N 41°54' E 009°48'2424.0 1015.2 27.8
2015-Jul-18 17:00N 42°18' E 009°48'2424.4 1014.9 29.0
2015-Jul-18 16:00N 42°42' E 009°42'2424.4 1015.5 29.6
2015-Jul-18 15:00N 43°06' E 009°36'2625.5 1016.1 29.7
2015-Jul-18 14:00N 43°30' E 009°24'2625.5 1016.8 30.0
2015-Jul-18 13:00N 43°54' E 009°12'2625.5 1017.1 29.4
2015-Jul-18 12:00N 44°18' E 009°00'   1017.5 29.0
Track history (hours):
 
Tides and Currents Weather Stations Pressure Air Temp Water Temp Dewpoint Dewpoint Depression Visibility Wind Speed Wind Dir Waves Ship Positions

Callsign BAREU51 (name unknown)

Last reported at 2015-Jul-28 09:00 UTC. Time now 2015-Jul-28 10:23 UTC.
Position N 37°48' E 010°30'.

Barometer 1012.7 mb
Air temperature 25.6 ° C

Date/timePositionNaut miles runAvg speedWind from/ knotsBaromVisibWave heightAir tempDewpointWater temp
2015-Jul-28 09:00N 37°48' E 010°30'2424.5 1012.7 25.6
2015-Jul-28 08:00N 38°12' E 010°24'2424.0 1012.5 26.0
2015-Jul-28 07:00N 38°36' E 010°24'2424.5 1011.6 25.9
2015-Jul-28 06:00N 39°00' E 010°18'2424.0 1011.0 26.9
2015-Jul-28 05:00N 39°24' E 010°18'2424.0 1010.0 26.1
2015-Jul-28 04:00N 39°48' E 010°18'1918.6 1010.0 27.3
2015-Jul-28 03:00N 40°06' E 010°12'2424.0 1010.1 27.1
2015-Jul-28 02:00N 40°30' E 010°12'2424.4 1009.8 27.2
2015-Jul-28 01:00N 40°54' E 010°06'2424.4 1008.9 25.8
2015-Jul-28 00:00N 41°18' E 010°00'2424.4 1008.3 24.0
2015-Jul-27 23:00N 41°42' E 009°54'2424.4 1005.4 25.1
2015-Jul-27 22:00N 42°06' E 009°48'1918.5 1008.1 27.5
2015-Jul-27 21:00N 42°24' E 009°42'2424.4 1008.5 27.4
2015-Jul-27 20:00N 42°48' E 009°36'2424.4 1007.9 28.2
2015-Jul-27 19:00N 43°12' E 009°30'2424.4 1006.1 24.5
2015-Jul-27 18:00N 43°36' E 009°24'2020.0 1003.5 25.0
2015-Jul-27 17:00N 43°54' E 009°12'2020.0 1004.0 25.3
2015-Jul-27 16:00N 44°12' E 009°00'12 1.7 1004.7 27.7
2015-Jul-27 09:00N 44°24' E 009°00'2019.9 1007.7 28.2
2015-Jul-27 08:00N 44°06' E 009°12'2727.3 1007.2 26.0
2015-Jul-27 07:00N 43°42' E 009°30'3030.0 1007.0 24.6
2015-Jul-27 06:00N 43°12' E 009°30'2625.6 1008.3 26.7
2015-Jul-27 05:00N 42°48' E 009°42'3030.3 1008.9 25.4
2015-Jul-27 04:00N 42°18' E 009°48'2424.4 1009.3 25.9
2015-Jul-27 03:00N 41°54' E 009°54'3030.3 1009.2 25.4
2015-Jul-27 02:00N 41°24' E 010°00'2424.4 1005.9 22.9
2015-Jul-27 01:00N 41°00' E 010°06'3030.3 1008.9 24.1
2015-Jul-27 00:00N 40°30' E 010°12'2424.0 1010.0 25.1
2015-Jul-26 23:00N 40°06' E 010°12'3030.4 1010.2 26.4
2015-Jul-26 22:00N 39°36' E 010°18'2424.0 1010.3 28.2
2015-Jul-26 21:00N 39°12' E 010°18'3030.0 1010.9 27.9
2015-Jul-26 20:00N 38°42' E 010°18'2424.5 1011.0 27.8
2015-Jul-26 19:00N 38°18' E 010°24'3030.4 1010.3 26.3
2015-Jul-26 18:00N 37°48' E 010°30'3030.0 1011.4 26.3
2015-Jul-26 17:00N 37°18' E 010°30'2424.5 1011.5 26.8
2015-Jul-26 16:00N 36°54' E 010°24'6 0.8 1012.3 27.2
2015-Jul-26 08:00N 36°48' E 010°24'1918.6 1015.1 28.0
2015-Jul-26 07:00N 37°06' E 010°30'2424.0 1013.8 25.4
2015-Jul-26 06:00N 37°30' E 010°30'2424.0 1013.1 25.6
2015-Jul-26 05:00N 37°54' E 010°30'2424.5 1012.5 25.5
2015-Jul-26 04:00N 38°18' E 010°24'2424.0 1011.8 26.1
2015-Jul-26 03:00N 38°42' E 010°24'1918.6 1011.0 26.8
2015-Jul-26 02:00N 39°00' E 010°18'2424.0 1011.8 28.1
2015-Jul-26 01:00N 39°24' E 010°18'2424.4 1011.6 28.3
2015-Jul-26 00:00N 39°48' E 010°12'2424.0 1012.3 28.5
2015-Jul-25 23:00N 40°12' E 010°12'2424.0 1012.3 28.9
2015-Jul-25 22:00N 40°36' E 010°12'2625.7 1011.9 28.2
2015-Jul-25 21:00N 41°00' E 010°00'2424.0 1011.2 26.7
2015-Jul-25 20:00N 41°24' E 010°00'2424.4 1009.4 25.7
2015-Jul-25 19:00N 41°48' E 009°54'2424.4 1009.3 27.3
2015-Jul-25 18:00N 42°12' E 009°48'2424.4 1009.2 28.6
2015-Jul-25 17:00N 42°36' E 009°42'1918.5 1008.9 28.6
2015-Jul-25 16:00N 42°54' E 009°36'2424.4 1009.2 30.0
2015-Jul-25 15:00N 43°18' E 009°30'2020.0 1007.7 27.6
2015-Jul-25 14:00N 43°36' E 009°18'2625.5 1008.5 27.6
2015-Jul-25 13:00N 44°00' E 009°06'1918.5 1008.4 27.8
2015-Jul-25 12:00N 44°18' E 009°00'0 0.0 1009.0 24.7
2015-Jul-24 18:00N 44°18' E 009°00'2625.5 1008.3 27.6
2015-Jul-24 17:00N 43°54' E 009°12'42917.2 1007.8 28.4
2015-Jul-23 16:00N 36°48' E 010°18'1515.4 1011.2 30.3
2015-Jul-23 15:00N 37°00' E 010°30'2424.0 1011.4 26.8
2015-Jul-23 14:00N 37°24' E 010°30'2625.8 1011.2 26.6
2015-Jul-23 13:00N 37°48' E 010°18'2424.5 1012.2 27.4
2015-Jul-23 12:00N 38°12' E 010°12'2020.3 1012.2 27.9
2015-Jul-23 11:00N 38°30' E 010°00'2424.0 1012.8 29.1
2015-Jul-23 10:00N 38°54' E 010°00'2424.0 1012.7 29.5
2015-Jul-23 09:00N 39°18' E 010°00'2424.0 1012.9 29.4
2015-Jul-23 08:00N 39°42' E 010°00'2424.0 1012.3 28.4
2015-Jul-23 07:00N 40°06' E 010°00'3030.0 1012.3 27.7
2015-Jul-23 06:00N 40°36' E 010°00'2424.0 1011.8 26.5
2015-Jul-23 05:00N 41°00' E 010°00'2424.4 1011.7 25.9
2015-Jul-23 04:00N 41°24' E 009°54'3030.0 1010.8 26.7
2015-Jul-23 03:00N 41°54' E 009°54'2424.4 1011.6 27.8
2015-Jul-23 02:00N 42°18' E 009°48'2424.4 1011.8 27.7
2015-Jul-23 01:00N 42°42' E 009°42'2424.4 1012.1 27.3
2015-Jul-23 00:00N 43°06' E 009°36'2625.5 1012.2 27.3
2015-Jul-22 23:00N 43°30' E 009°24'2625.5 1012.2 26.6
2015-Jul-22 22:00N 43°54' E 009°12'2625.5 1012.1 26.9
2015-Jul-22 21:00N 44°18' E 009°00'7 1.1 1012.7 27.6
2015-Jul-22 14:00N 44°24' E 008°54'1312.7 1013.5 29.7
2015-Jul-22 13:00N 44°12' E 009°00'2020.0 1013.4 29.6
2015-Jul-22 12:00N 43°54' E 009°12'2625.5 1014.1 29.2
2015-Jul-22 11:00N 43°30' E 009°24'2625.5 1014.4 29.4
2015-Jul-22 10:00N 43°06' E 009°36'1918.5 1014.4 28.8
2015-Jul-22 09:00N 42°48' E 009°42'2424.4 1014.6 29.3
2015-Jul-22 08:00N 42°24' E 009°48'2424.0 1014.6 28.6
2015-Jul-22 07:00N 42°00' E 009°48'4824.1 1014.6 28.6
2015-Jul-22 05:00N 41°12' E 009°54'3030.3 1013.8 27.2
2015-Jul-22 04:00N 40°42' E 010°00'2424.4 1013.8 27.2
2015-Jul-22 03:00N 40°18' E 009°54'3030.0 1013.8 27.8
2015-Jul-22 02:00N 39°48' E 009°54'2424.4 1013.7 27.9
2015-Jul-22 01:00N 39°24' E 009°48'3030.4 1014.0 27.6
2015-Jul-22 00:00N 38°54' E 009°54'2625.8 1014.5 27.2
2015-Jul-21 23:00N 38°30' E 010°06'2424.5 1014.7 26.9
2015-Jul-21 22:00N 38°06' E 010°12'3131.5 1015.0 26.3
2015-Jul-21 21:00N 37°36' E 010°24'2424.5 1014.9 26.0
2015-Jul-21 20:00N 37°12' E 010°30'2424.5 1014.6 25.9
2015-Jul-21 19:00N 36°48' E 010°24'0 0.0 1014.1 26.3
2015-Jul-21 11:00N 36°48' E 010°24'2424.5 1015.5 28.9
2015-Jul-21 10:00N 37°12' E 010°30'1818.0 1015.3 26.8
2015-Jul-21 09:00N 37°30' E 010°30'2625.8 1015.0 26.4
2015-Jul-21 08:00N 37°54' E 010°18'2424.5 1014.6 26.5
2015-Jul-21 07:00N 38°18' E 010°12'2020.3 1014.4 26.3
2015-Jul-21 06:00N 38°36' E 010°00'2424.5 1014.4 26.5
2015-Jul-21 05:00N 39°00' E 009°54'2424.4 1014.1 27.0
2015-Jul-21 04:00N 39°24' E 009°48'2424.4 1014.0 26.6
2015-Jul-21 03:00N 39°48' E 009°54'2424.0 1013.7 27.3
2015-Jul-21 02:00N 40°12' E 009°54'2424.4 1013.8 27.2
2015-Jul-21 01:00N 40°36' E 010°00'4221.1 1014.1 27.0
2015-Jul-20 23:00N 41°18' E 009°54'2424.0 1013.1 26.2
2015-Jul-20 22:00N 41°42' E 009°54'2424.4 1013.9 27.7
2015-Jul-20 21:00N 42°06' E 009°48'2424.4 1014.0 27.8
2015-Jul-20 20:00N 42°30' E 009°42'2424.4 1013.9 28.1
2015-Jul-20 19:00N 42°54' E 009°36'2424.4 1013.1 28.6
2015-Jul-20 18:00N 43°18' E 009°30'2625.5 1012.4 27.1
2015-Jul-20 17:00N 43°42' E 009°18'3332.7 1011.9 28.1
2015-Jul-20 16:00N 44°12' E 009°00'12 1.7 1012.3 28.8
2015-Jul-20 09:00N 44°24' E 009°00'1918.5 1014.3 29.7
2015-Jul-20 08:00N 44°06' E 009°06'2625.5 1013.4 28.0
2015-Jul-20 07:00N 43°42' E 009°18'2625.5 1013.3 27.7
2015-Jul-20 06:00N 43°18' E 009°30'1918.5 1012.9 27.2
2015-Jul-20 05:00N 43°00' E 009°36'2424.4 1012.5 27.4
2015-Jul-20 04:00N 42°36' E 009°42'3030.3 1011.6 26.9
2015-Jul-20 03:00N 42°06' E 009°48'2424.4 1011.8 26.6
2015-Jul-20 02:00N 41°42' E 009°54'2424.0 1012.0 26.9
2015-Jul-20 01:00N 41°18' E 009°54'2424.4 1012.3 27.2
2015-Jul-20 00:00N 40°54' E 010°00'3030.0 1012.9 27.0
2015-Jul-19 23:00N 40°24' E 010°00'2424.4 1013.0 27.3
2015-Jul-19 22:00N 40°00' E 009°54'2424.4 1013.5 27.5
2015-Jul-19 21:00N 39°36' E 009°48'2424.0 1013.9 27.7
2015-Jul-19 20:00N 39°12' E 009°48'2625.7 1013.8 26.7
2015-Jul-19 19:00N 38°48' E 010°00'2424.5 1013.3 26.5
2015-Jul-19 18:00N 38°24' E 010°06'3131.4 1013.3 26.7
2015-Jul-19 17:00N 37°54' E 010°18'2424.5 1013.6 27.6
2015-Jul-19 16:00N 37°30' E 010°24'2424.5 1013.7 28.0
2015-Jul-19 15:00N 37°06' E 010°30'1918.6 1012.7 27.6
2015-Jul-19 14:00N 36°48' E 010°24'6 0.9 1012.4 27.6
2015-Jul-19 07:00N 36°54' E 010°24'1918.6 1015.3 25.7
2015-Jul-19 06:00N 37°12' E 010°30'2424.5 1015.1 25.8
2015-Jul-19 05:00N 37°36' E 010°24'2424.5 1014.8 25.2
2015-Jul-19 04:00N 38°00' E 010°18'2020.3 1014.4 25.4
2015-Jul-19 03:00N 38°18' E 010°06'2424.5 1014.4 25.8
2015-Jul-19 02:00N 38°42' E 010°00'2625.8 1014.4 26.4
2015-Jul-19 01:00N 39°06' E 009°48'1818.0 1015.5 27.1
2015-Jul-19 00:00N 39°24' E 009°48'2424.4 1015.5 27.3
2015-Jul-18 23:00N 39°48' E 009°54'2424.0 1015.0 27.9
2015-Jul-18 22:00N 40°12' E 009°54'2424.4 1014.9 27.2
2015-Jul-18 21:00N 40°36' E 010°00'2424.0 1014.8 27.3
2015-Jul-18 20:00N 41°00' E 010°00'2424.4 1015.3 27.9
2015-Jul-18 19:00N 41°24' E 009°54'3030.3 1015.3 27.2
2015-Jul-18 18:00N 41°54' E 009°48'2424.0 1015.2 27.8
2015-Jul-18 17:00N 42°18' E 009°48'2424.4 1014.9 29.0
2015-Jul-18 16:00N 42°42' E 009°42'2424.4 1015.5 29.6
2015-Jul-18 15:00N 43°06' E 009°36'2625.5 1016.1 29.7
2015-Jul-18 14:00N 43°30' E 009°24'2625.5 1016.8 30.0
2015-Jul-18 13:00N 43°54' E 009°12'2625.5 1017.1 29.4
2015-Jul-18 12:00N 44°18' E 009°00'   1017.5 29.0

Dump ship's entire track history